Time;durP1;ratioP1;P1;durP2;ratioP2;P2;SDS_P1;SDS_P2;PMS_P1;PMS_P2;Temp;Humidity;BMP_temperature;BMP_pressure;BME280_temperature;BME280_humidity;BME280_pressure;Samples;Min_cycle;Max_cycle;Signal;HPM_P1;HPM_P2
2023/02/08 00:00:05;;;;;;;42.13;28.02;;;;;;;-2.80;97.95;103730.56;5012706;28;20268;-69
2023/02/08 00:02:38;;;;;;;44.83;26.65;;;;;;;-2.77;97.15;103730.50;5016492;28;20515;-69
2023/02/08 00:05:18;;;;;;;46.88;27.83;;;;;;;-2.62;97.23;103734.44;4999559;28;20267;-68
2023/02/08 00:07:53;;;;;;;43.35;30.77;;;;;;;-2.75;96.34;103741.03;5000604;28;20193;-68
2023/02/08 00:10:32;;;;;;;50.05;29.02;;;;;;;-2.88;96.97;103734.38;4998958;28;20232;-69
2023/02/08 00:13:08;;;;;;;47.05;27.85;;;;;;;-2.99;97.67;103733.81;4998736;28;20202;-68
2023/02/08 00:15:46;;;;;;;45.88;31.25;;;;;;;-2.96;97.67;103728.44;4998428;28;20605;-69
2023/02/08 00:18:24;;;;;;;50.38;32.60;;;;;;;-2.96;97.44;103729.31;5005156;28;20198;-69
2023/02/08 00:20:59;;;;;;;48.28;31.05;;;;;;;-2.93;97.85;103728.34;5024660;28;20197;-70
2023/02/08 00:23:34;;;;;;;68.63;38.28;;;;;;;-2.85;97.22;103723.66;5034602;28;20197;-69
2023/02/08 00:26:15;;;;;;;62.03;37.95;;;;;;;-2.87;97.56;103722.88;5006457;28;20220;-70
2023/02/08 00:28:52;;;;;;;58.00;37.50;;;;;;;-2.72;97.00;103717.97;4992284;28;20252;-69
2023/02/08 00:31:32;;;;;;;59.63;38.83;;;;;;;-2.90;96.61;103728.25;4997733;28;20202;-69
2023/02/08 00:34:10;;;;;;;70.22;39.40;;;;;;;-2.97;97.84;103716.97;4997561;28;20572;-68
2023/02/08 00:36:55;;;;;;;68.53;41.20;;;;;;;-3.08;98.16;103725.25;4990445;28;20214;-68
2023/02/08 00:39:30;;;;;;;66.07;39.45;;;;;;;-3.10;98.35;103727.06;5015046;28;20699;-69
2023/02/08 00:42:21;;;;;;;78.00;45.45;;;;;;;-2.98;98.26;103724.97;5000304;28;20232;-68
2023/02/08 00:44:58;;;;;;;75.47;41.40;;;;;;;-2.98;98.21;103720.53;4998640;28;20548;-70
2023/02/08 00:47:32;;;;;;;74.20;44.65;;;;;;;-2.94;98.02;103716.00;4990725;28;20228;-69
2023/02/08 00:50:08;;;;;;;69.93;41.10;;;;;;;-3.05;97.67;103718.13;4982205;28;20214;-69
2023/02/08 00:53:04;;;;;;;63.50;39.90;;;;;;;-2.96;97.43;103720.50;5004767;28;20208;-69
2023/02/08 00:55:42;;;;;;;68.00;42.65;;;;;;;-3.16;97.86;103719.31;5002868;28;20212;-68
2023/02/08 00:58:26;;;;;;;71.53;40.28;;;;;;;-3.29;98.06;103725.84;5013273;28;20188;-69
2023/02/08 01:01:32;;;;;;;77.32;43.70;;;;;;;-3.34;98.79;103717.19;5016564;28;20200;-68
2023/02/08 01:04:33;;;;;;;75.40;44.42;;;;;;;-3.35;99.69;103720.75;4984743;28;20680;-69
2023/02/08 01:07:14;;;;;;;69.95;41.13;;;;;;;-3.41;100.00;103730.66;5005422;28;20217;-68
2023/02/08 01:10:17;;;;;;;78.88;41.38;;;;;;;-3.34;100.00;103727.78;4998935;28;20194;-69
2023/02/08 01:12:54;;;;;;;75.30;43.17;;;;;;;-3.37;100.00;103721.69;5004112;28;20675;-69
2023/02/08 01:15:33;;;;;;;73.88;43.45;;;;;;;-3.40;100.00;103719.16;4991911;28;20212;-69
2023/02/08 01:18:07;;;;;;;79.35;44.00;;;;;;;-3.46;100.00;103725.50;4991841;28;20576;-69
2023/02/08 01:20:44;;;;;;;65.90;44.33;;;;;;;-3.40;100.00;103729.75;5001226;28;20217;-69
2023/02/08 01:23:38;;;;;;;61.60;37.88;;;;;;;-3.26;100.00;103731.09;4996736;28;20669;-68
2023/02/08 01:26:31;;;;;;;73.55;42.03;;;;;;;-3.12;100.00;103726.25;5020048;28;20577;-71
2023/02/08 01:29:14;;;;;;;63.38;40.38;;;;;;;-3.08;100.00;103727.91;5010172;28;20194;-68
2023/02/08 01:32:12;;;;;;;64.20;38.50;;;;;;;-3.08;98.66;103722.59;5014488;28;20257;-69
2023/02/08 01:34:45;;;;;;;67.68;41.65;;;;;;;-3.04;98.27;103719.84;4996966;28;20579;-67
2023/02/08 01:37:25;;;;;;;58.38;38.75;;;;;;;-3.21;97.48;103718.59;5006720;28;20300;-68
2023/02/08 01:40:04;;;;;;;82.43;41.85;;;;;;;-3.33;97.82;103713.63;5007999;28;20208;-69
2023/02/08 01:42:55;;;;;;;76.70;45.25;;;;;;;-3.50;98.32;103715.91;5014600;28;20204;-69
2023/02/08 01:45:32;;;;;;;68.00;42.85;;;;;;;-3.48;99.71;103718.47;4990225;28;20206;-70
2023/02/08 01:48:19;;;;;;;71.28;43.10;;;;;;;-3.51;99.93;103716.81;4993441;28;20208;-69
2023/02/08 01:50:59;;;;;;;74.38;42.40;;;;;;;-3.49;100.00;103708.81;5022248;28;20234;-69
2023/02/08 01:53:37;;;;;;;74.93;38.30;;;;;;;-3.49;100.00;103707.06;4993838;28;20201;-69
2023/02/08 01:56:33;;;;;;;62.55;39.28;;;;;;;-3.41;100.00;103709.47;4988599;28;20230;-69
2023/02/08 01:59:34;;;;;;;62.78;39.08;;;;;;;-3.46;100.00;103711.38;5002454;28;20285;-69
2023/02/08 02:02:20;;;;;;;58.45;39.38;;;;;;;-3.62;100.00;103710.94;5007434;28;20283;-68
2023/02/08 02:05:03;;;;;;;81.10;42.38;;;;;;;-3.54;100.00;103715.13;5011318;28;20287;-69
2023/02/08 02:07:59;;;;;;;68.30;39.72;;;;;;;-3.47;100.00;103710.50;5028813;28;20723;-70
2023/02/08 02:10:46;;;;;;;60.80;38.20;;;;;;;-3.48;100.00;103706.13;4982714;28;20236;-68
2023/02/08 02:13:25;;;;;;;63.65;39.50;;;;;;;-3.42;100.00;103703.31;5024169;28;20616;-69
2023/02/08 02:16:04;;;;;;;65.25;38.85;;;;;;;-3.37;100.00;103711.97;4996227;28;20221;-70
2023/02/08 02:18:48;;;;;;;52.30;32.40;;;;;;;-3.28;100.00;103706.41;4996294;28;20297;-69
2023/02/08 02:25:17;;;;;;;53.45;34.20;;;;;;;-3.20;100.00;103714.16;5020162;28;20279;-68
2023/02/08 02:28:21;;;;;;;60.17;36.53;;;;;;;-3.20;100.00;103720.31;5005022;28;20688;-70
2023/02/08 02:31:58;;;;;;;63.75;36.65;;;;;;;-3.20;100.00;103722.09;5000749;28;20320;-69
2023/02/08 02:34:39;;;;;;;53.15;34.17;;;;;;;-3.16;100.00;103721.97;4996509;28;20194;-70
2023/02/08 02:37:27;;;;;;;50.40;29.05;;;;;;;-3.05;99.95;103718.13;4993820;28;20275;-69
2023/02/08 02:40:12;;;;;;;49.13;32.88;;;;;;;-3.04;99.33;103714.53;5008380;28;20574;-67
2023/02/08 02:46:14;;;;;;;47.20;29.30;;;;;;;-2.96;98.67;103720.50;4996751;28;20221;-69
2023/02/08 02:49:05;;;;;;;47.13;29.98;;;;;;;-2.96;98.49;103720.50;4982175;28;20221;-70
2023/02/08 02:52:06;;;;;;;48.25;27.77;;;;;;;-2.99;98.67;103724.09;5017369;28;20308;-69
2023/02/08 02:55:00;;;;;;;45.63;28.45;;;;;;;-2.94;97.22;103718.66;5019053;28;20275;-68
2023/02/08 02:57:46;;;;;;;40.92;24.02;;;;;;;-2.87;97.40;103714.91;4994521;28;20210;-70
2023/02/08 03:00:25;;;;;;;42.65;25.60;;;;;;;-2.74;96.95;103724.22;4969299;28;20194;-68
2023/02/08 03:06:06;;;;;;;44.05;25.00;;;;;;;-2.92;96.75;103719.50;4995390;28;20242;-68
2023/02/08 03:09:14;;;;;;;52.65;27.95;;;;;;;-2.91;96.66;103716.81;5019382;28;20209;-69
2023/02/08 03:12:01;;;;;;;36.55;21.27;;;;;;;-2.92;95.92;103715.06;4982344;28;20212;-68
2023/02/08 03:14:54;;;;;;;33.13;23.25;;;;;;;-2.92;95.59;103717.72;5010369;28;20297;-68
2023/02/08 03:18:01;;;;;;;35.45;22.60;;;;;;;-2.91;95.21;103721.22;5008874;28;20221;-69
2023/02/08 03:20:43;;;;;;;35.97;21.40;;;;;;;-2.91;94.87;103719.44;5009274;28;20198;-69
2023/02/08 03:23:38;;;;;;;35.33;23.77;;;;;;;-2.99;95.67;103715.28;5001595;28;20650;-68
2023/02/08 03:26:25;;;;;;;33.42;20.10;;;;;;;-3.00;96.27;103729.47;5019045;28;20222;-69
2023/02/08 03:29:09;;;;;;;29.30;19.85;;;;;;;-3.00;95.51;103732.09;4998948;28;20703;-70
2023/02/08 03:31:57;;;;;;;40.85;21.17;;;;;;;-2.97;94.34;103732.00;5015624;28;20333;-70
2023/02/08 03:34:47;;;;;;;32.67;20.02;;;;;;;-2.96;93.02;103724.03;4993411;28;20204;-69
2023/02/08 03:37:26;;;;;;;35.63;20.10;;;;;;;-2.98;92.61;103730.25;5000423;28;20665;-69
2023/02/08 03:40:07;;;;;;;35.53;21.05;;;;;;;-2.87;92.85;103733.47;5035384;28;20196;-69
2023/02/08 03:42:44;;;;;;;35.00;19.48;;;;;;;-2.93;91.99;103717.75;4979669;28;20195;-71
2023/02/08 03:45:42;;;;;;;32.10;19.40;;;;;;;-2.99;91.88;103725.88;5008510;28;20272;-69
2023/02/08 03:48:24;;;;;;;29.10;18.15;;;;;;;-3.05;92.55;103726.09;4993884;28;20291;-67
2023/02/08 03:51:04;;;;;;;30.80;20.63;;;;;;;-2.94;92.00;103723.97;5002046;28;20655;-68
2023/02/08 03:53:51;;;;;;;27.73;19.92;;;;;;;-2.93;92.25;103728.34;5029688;28;20256;-68
2023/02/08 03:56:45;;;;;;;29.67;18.77;;;;;;;-3.01;91.98;103725.06;5000130;28;20720;-68
2023/02/08 03:59:34;;;;;;;23.48;16.13;;;;;;;-3.09;92.21;103728.81;4998387;28;20225;-67
2023/02/08 04:02:22;;;;;;;38.75;18.88;;;;;;;-3.12;91.93;103728.91;4999771;28;20747;-68
2023/02/08 04:05:03;;;;;;;33.17;18.13;;;;;;;-3.08;91.13;103735.84;5027497;28;20264;-68
2023/02/08 04:07:51;;;;;;;29.85;19.33;;;;;;;-3.04;91.85;103733.09;5007859;28;20233;-68
2023/02/08 04:10:26;;;;;;;36.17;19.83;;;;;;;-2.99;92.90;103725.88;4999292;28;20198;-67
2023/02/08 04:13:15;;;;;;;27.80;17.90;;;;;;;-3.03;92.62;103733.06;5017060;28;20199;-68
2023/02/08 04:15:53;;;;;;;35.55;18.88;;;;;;;-3.11;91.90;103730.66;4998421;28;20643;-67
2023/02/08 04:18:26;;;;;;;29.25;18.00;;;;;;;-3.13;92.25;103727.16;4999466;28;20709;-68
2023/02/08 04:21:16;;;;;;;33.08;19.30;;;;;;;-2.95;91.04;103725.72;5001978;28;20746;-68
2023/02/08 04:24:04;;;;;;;32.40;18.80;;;;;;;-3.04;90.57;103730.44;5017395;28;20194;-69
2023/02/08 04:26:52;;;;;;;28.95;18.88;;;;;;;-3.00;91.24;103725.00;4985902;28;20222;-68
2023/02/08 04:29:38;;;;;;;32.67;17.92;;;;;;;-3.11;90.67;103727.13;4999394;28;20296;-69
2023/02/08 04:32:15;;;;;;;32.30;20.67;;;;;;;-3.15;90.75;103730.78;5003103;28;20912;-68
2023/02/08 04:34:55;;;;;;;33.63;19.60;;;;;;;-3.19;91.32;103737.94;5001501;28;20205;-69
2023/02/08 04:37:45;;;;;;;31.92;18.52;;;;;;;-2.99;90.84;103733.81;5006569;28;20631;-69
2023/02/08 04:40:36;;;;;;;35.08;18.42;;;;;;;-3.17;90.69;103725.53;5011965;28;20190;-68
2023/02/08 04:43:14;;;;;;;35.13;21.20;;;;;;;-3.10;91.09;103726.22;5007083;28;20736;-69
2023/02/08 04:46:11;;;;;;;33.63;19.38;;;;;;;-3.09;90.03;103736.75;5016918;28;20594;-68
2023/02/08 04:48:53;;;;;;;32.33;19.15;;;;;;;-3.11;90.96;103722.69;5009871;28;20213;-68
2023/02/08 04:51:39;;;;;;;37.83;21.50;;;;;;;-3.00;90.11;103732.94;4997900;28;20660;-69
2023/02/08 04:57:15;;;;;;;31.63;17.45;;;;;;;-3.07;88.10;103727.00;5006094;28;20230;-69
2023/02/08 05:00:15;;;;;;;25.25;17.55;;;;;;;-2.98;88.03;103724.97;5007694;28;20202;-70
2023/02/08 05:03:00;;;;;;;28.92;16.58;;;;;;;-3.02;88.17;103721.56;5004355;28;20288;-70
2023/02/08 05:05:40;;;;;;;32.35;18.70;;;;;;;-3.17;88.89;103720.22;5029819;28;20221;-67
2023/02/08 05:08:19;;;;;;;29.90;18.13;;;;;;;-3.15;89.43;103723.66;5015723;28;20320;-68
2023/02/08 05:11:03;;;;;;;31.40;18.48;;;;;;;-3.19;89.25;103721.16;5018497;28;20229;-69
2023/02/08 05:13:38;;;;;;;38.38;17.75;;;;;;;-3.20;89.21;103724.75;4998270;28;20260;-68
2023/02/08 05:16:22;;;;;;;22.73;17.67;;;;;;;-3.17;89.91;103725.53;5013804;28;20210;-69
2023/02/08 05:19:13;;;;;;;30.55;18.85;;;;;;;-3.04;88.86;103725.13;5007930;28;20224;-69
2023/02/08 05:22:04;;;;;;;28.55;18.13;;;;;;;-3.06;88.56;103727.84;5002015;28;20583;-69
2023/02/08 05:24:47;;;;;;;35.33;18.33;;;;;;;-3.07;88.15;103727.00;5022827;28;20197;-68
2023/02/08 05:27:24;;;;;;;34.85;20.20;;;;;;;-3.17;88.93;103725.53;5001292;28;20213;-69
2023/02/08 05:30:07;;;;;;;29.58;19.50;;;;;;;-3.21;89.18;103723.00;5000483;28;20612;-68
2023/02/08 05:35:41;;;;;;;28.33;17.70;;;;;;;-3.15;89.86;103731.63;5005602;28;20229;-68
2023/02/08 05:38:15;;;;;;;31.48;17.70;;;;;;;-3.12;88.75;103725.38;4994606;28;20727;-69
2023/02/08 05:41:01;;;;;;;35.13;17.92;;;;;;;-3.33;88.55;103729.50;5014565;28;20610;-69
2023/02/08 05:43:42;;;;;;;31.98;19.95;;;;;;;-3.33;89.65;103729.50;4995119;28;20224;-69
2023/02/08 05:46:31;;;;;;;35.90;19.60;;;;;;;-3.15;88.80;103736.91;4996423;28;20218;-70
2023/02/08 05:49:23;;;;;;;31.65;18.95;;;;;;;-3.19;88.17;103737.94;4996898;28;20229;-69
2023/02/08 05:52:03;;;;;;;38.50;20.25;;;;;;;-3.18;88.45;103746.75;5000684;28;20215;-67
2023/02/08 05:54:43;;;;;;;34.47;20.60;;;;;;;-3.27;88.60;103745.25;5001874;28;20217;-70
2023/02/08 05:57:20;;;;;;;36.80;18.85;;;;;;;-3.29;89.29;103731.16;5010255;28;20221;-69
2023/02/08 05:59:56;;;;;;;34.97;19.98;;;;;;;-3.41;89.89;103739.47;5029095;28;20274;-69
2023/02/08 06:02:53;;;;;;;29.23;19.00;;;;;;;-3.21;90.38;103737.13;5013105;28;20205;-69
2023/02/08 06:05:45;;;;;;;32.53;18.15;;;;;;;-3.34;91.10;103743.66;5001875;28;20244;-67
2023/02/08 06:08:21;;;;;;;32.42;18.67;;;;;;;-3.28;90.74;103737.31;4985300;28;20201;-69
2023/02/08 06:11:12;;;;;;;32.13;22.35;;;;;;;-3.37;90.59;103749.06;4997744;28;20212;-70
2023/02/08 06:13:49;;;;;;;36.45;19.55;;;;;;;-3.20;89.83;103754.75;4997909;28;20221;-69
2023/02/08 06:16:24;;;;;;;31.67;18.92;;;;;;;-3.25;88.69;103754.03;5002644;28;20217;-69
2023/02/08 06:19:13;;;;;;;31.05;19.48;;;;;;;-3.25;89.95;103756.66;4991445;28;20198;-69
2023/02/08 06:21:53;;;;;;;36.38;22.08;;;;;;;-3.23;89.31;103752.19;5001832;28;20190;-70
2023/02/08 06:24:41;;;;;;;40.20;22.88;;;;;;;-3.13;88.88;103758.09;5015954;28;20255;-70
2023/02/08 06:27:21;;;;;;;26.75;17.90;;;;;;;-3.14;89.36;103765.16;5012456;28;20221;-69
2023/02/08 06:30:06;;;;;;;39.28;18.75;;;;;;;-3.13;89.17;103766.91;5013374;28;20200;-70
2023/02/08 06:33:06;;;;;;;39.92;20.02;;;;;;;-3.03;87.92;103767.50;5018003;28;20711;-69
2023/02/08 06:35:48;;;;;;;31.85;18.05;;;;;;;-2.95;87.92;103764.66;4996277;28;20193;-69
2023/02/08 06:38:22;;;;;;;32.60;18.60;;;;;;;-3.07;87.32;103768.50;5025223;28;20188;-69
2023/02/08 06:41:52;;;;;;;31.55;21.45;;;;;;;-3.04;87.00;103768.41;5020189;28;20188;-70
2023/02/08 06:44:32;;;;;;;33.63;19.17;;;;;;;-2.93;87.05;103768.09;5032554;28;20292;-69
2023/02/08 06:47:06;;;;;;;35.08;19.98;;;;;;;-2.96;86.58;103770.84;5025371;28;20222;-69
2023/02/08 06:49:45;;;;;;;33.20;18.23;;;;;;;-2.97;86.68;103771.75;5007294;28;20276;-67
2023/02/08 06:55:31;;;;;;;35.85;21.92;;;;;;;-2.94;85.64;103779.59;5029276;28;20266;-69
2023/02/08 06:58:20;;;;;;;30.00;17.02;;;;;;;-2.98;85.17;103777.97;5012629;28;20221;-68
2023/02/08 07:01:01;;;;;;;46.47;21.40;;;;;;;-2.91;86.16;103779.53;5005316;28;20221;-68
2023/02/08 07:04:21;;;;;;;33.83;19.33;;;;;;;-2.88;86.66;103775.00;5000312;28;20179;-69
2023/02/08 07:07:01;;;;;;;37.58;21.27;;;;;;;-2.82;85.62;103774.81;5018307;28;20267;-68
2023/02/08 07:12:29;;;;;;;30.45;20.17;;;;;;;-2.89;85.52;103778.56;5025541;28;20684;-68
2023/02/08 07:15:03;;;;;;;35.15;19.60;;;;;;;-2.81;86.03;103767.75;5011475;28;20213;-68
2023/02/08 07:17:43;;;;;;;32.03;19.45;;;;;;;-2.71;85.27;103767.41;5001654;28;20718;-68
2023/02/08 07:20:16;;;;;;;31.08;18.50;;;;;;;-2.65;84.07;103769.00;5015282;28;20198;-68
2023/02/08 07:22:47;;;;;;;39.85;21.73;;;;;;;-2.63;84.88;103765.41;5006758;28;20198;-68
2023/02/08 07:25:19;;;;;;;36.03;20.20;;;;;;;-2.69;83.89;103764.72;4996480;28;20264;-70
2023/02/08 07:27:51;;;;;;;37.25;19.70;;;;;;;-2.62;83.97;103766.28;5013350;28;20234;-69
2023/02/08 07:30:30;;;;;;;30.05;19.02;;;;;;;-2.55;84.02;103766.94;5031157;28;20194;-69
2023/02/08 07:33:05;;;;;;;33.58;20.73;;;;;;;-2.48;84.80;103766.72;5024950;28;20217;-69
2023/02/08 07:35:51;;;;;;;30.58;20.23;;;;;;;-2.36;83.03;103768.94;5016712;28;20236;-69
2023/02/08 07:38:22;;;;;;;35.38;20.65;;;;;;;-2.15;82.68;103767.41;5021710;28;20194;-69
2023/02/08 07:41:03;;;;;;;34.38;20.77;;;;;;;-2.19;81.74;103773.72;4975350;28;20230;-69
2023/02/08 07:43:37;;;;;;;34.78;19.77;;;;;;;-2.10;81.26;103786.69;4987015;28;20217;-69
2023/02/08 07:46:11;;;;;;;31.08;20.10;;;;;;;-2.20;80.40;103786.13;5027960;28;20325;-68
2023/02/08 07:49:14;;;;;;;38.45;21.48;;;;;;;-2.00;81.40;103792.56;5013983;28;20194;-69
2023/02/08 07:54:48;;;;;;;39.25;19.98;;;;;;;-1.82;80.44;103795.47;5008078;28;20211;-71
2023/02/08 07:57:55;;;;;;;33.47;17.75;;;;;;;-1.87;79.99;103804.50;5008672;28;20217;-68
2023/02/08 08:00:28;;;;;;;34.28;19.08;;;;;;;-1.73;79.51;103796.06;5035392;28;20210;-69
2023/02/08 08:03:09;;;;;;;40.80;17.00;;;;;;;-1.60;78.45;103805.38;5006786;28;20682;-69
2023/02/08 08:05:45;;;;;;;32.08;19.95;;;;;;;-1.69;77.77;103809.19;5021973;28;20194;-67
2023/02/08 08:08:20;;;;;;;39.20;20.42;;;;;;;-1.70;77.60;103807.47;5000046;28;20199;-69
2023/02/08 08:10:52;;;;;;;35.50;19.45;;;;;;;-1.67;77.26;103806.47;4987604;28;20199;-70
2023/02/08 08:13:23;;;;;;;36.53;18.30;;;;;;;-1.55;77.53;103808.72;5027207;28;20221;-68
2023/02/08 08:15:56;;;;;;;37.55;18.63;;;;;;;-1.41;77.40;103807.34;5016003;28;20226;-66
2023/02/08 08:18:31;;;;;;;39.40;23.17;;;;;;;-1.12;77.70;103808.06;4999188;28;20202;-68
2023/02/08 08:21:07;;;;;;;30.00;18.55;;;;;;;-1.23;75.67;103812.91;4987475;28;20564;-68
2023/02/08 08:23:40;;;;;;;33.97;19.73;;;;;;;-1.31;75.85;103806.06;4973835;28;20198;-68
2023/02/08 08:26:23;;;;;;;28.15;17.00;;;;;;;-1.19;76.25;103807.41;5020148;28;20257;-68
2023/02/08 08:28:57;;;;;;;35.95;20.95;;;;;;;-1.08;75.61;103801.72;5001928;28;20581;-67
2023/02/08 08:31:29;;;;;;;35.55;21.85;;;;;;;-1.00;74.61;103802.28;4998250;28;20249;-68
2023/02/08 08:34:00;;;;;;;30.95;18.88;;;;;;;-0.99;75.08;103802.25;4998102;28;20211;-69
2023/02/08 08:36:37;;;;;;;29.98;19.17;;;;;;;-0.87;74.37;103806.22;4999706;28;20310;-68
2023/02/08 08:39:11;;;;;;;39.40;20.05;;;;;;;-0.92;73.99;103803.72;5015647;28;20198;-68
2023/02/08 08:41:42;;;;;;;44.72;23.08;;;;;;;-0.83;74.48;103804.34;5011469;28;20205;-68
2023/02/08 08:44:13;;;;;;;31.38;17.63;;;;;;;-0.79;74.55;103801.50;5018466;28;20187;-68
2023/02/08 08:46:44;;;;;;;35.13;19.45;;;;;;;-0.68;73.85;103801.97;5017714;28;20331;-67
2023/02/08 08:49:16;;;;;;;31.60;18.85;;;;;;;-0.57;74.22;103788.22;5019552;28;20198;-67
2023/02/08 08:51:53;;;;;;;34.65;18.33;;;;;;;-0.38;73.05;103788.34;4998198;28;20230;-70
2023/02/08 08:54:24;;;;;;;38.88;22.15;;;;;;;-0.38;71.90;103780.38;5016926;28;20241;-68
2023/02/08 08:56:56;;;;;;;30.85;19.83;;;;;;;-0.36;72.00;103781.19;5012258;28;20280;-69
2023/02/08 08:59:29;;;;;;;37.42;24.13;;;;;;;-0.28;71.95;103784.41;5018089;28;20212;-69
2023/02/08 09:01:59;;;;;;;43.22;24.10;;;;;;;-0.26;71.86;103786.09;5012508;28;20202;-69
2023/02/08 09:04:32;;;;;;;35.28;22.80;;;;;;;-0.14;71.50;103780.25;4983701;28;20201;-68
2023/02/08 09:07:09;;;;;;;37.00;20.85;;;;;;;-0.01;72.35;103777.97;5026968;28;20286;-69
2023/02/08 09:09:46;;;;;;;35.58;21.60;;;;;;;-0.13;71.35;103778.47;5011454;28;20245;-69
2023/02/08 09:12:18;;;;;;;33.42;21.10;;;;;;;-0.06;71.93;103775.50;5030635;28;20270;-69
2023/02/08 09:14:49;;;;;;;38.47;21.48;;;;;;;-0.24;70.68;103778.06;5002545;28;20222;-70
2023/02/08 09:17:20;;;;;;;47.90;24.55;;;;;;;-0.29;71.63;103782.69;5022964;28;20225;-68
2023/02/08 09:19:52;;;;;;;36.10;23.73;;;;;;;-0.27;70.89;103778.16;5024384;28;20203;-70
2023/02/08 09:22:25;;;;;;;43.47;22.52;;;;;;;-0.47;71.97;103786.94;4987496;28;20550;-68
2023/02/08 09:25:00;;;;;;;41.28;24.20;;;;;;;-0.32;71.79;103790.78;4983121;28;20285;-70
2023/02/08 09:27:33;;;;;;;35.58;23.40;;;;;;;-0.29;70.45;103794.19;5011292;28;20214;-68
2023/02/08 09:30:11;;;;;;;37.15;24.40;;;;;;;-0.38;70.63;103789.22;4994783;28;20198;-67
2023/02/08 09:32:43;;;;;;;33.88;21.67;;;;;;;-0.22;70.21;103794.81;4981905;28;20212;-68
2023/02/08 09:35:14;;;;;;;39.75;23.83;;;;;;;-0.09;69.93;103796.91;4965384;28;20206;-69
2023/02/08 09:37:53;;;;;;;46.80;26.42;;;;;;;0.08;70.60;103796.22;5013886;28;20308;-68
2023/02/08 09:40:31;;;;;;;44.53;24.08;;;;;;;0.08;68.99;103790.91;4979198;28;20194;-68
2023/02/08 09:43:10;;;;;;;38.88;23.38;;;;;;;0.26;69.86;103787.44;5015018;28;20280;-70
2023/02/08 09:45:56;;;;;;;36.60;21.85;;;;;;;0.38;69.20;103786.94;5016215;28;20205;-68
2023/02/08 09:48:36;;;;;;;30.83;21.83;;;;;;;0.48;68.02;103787.41;5011520;28;20202;-68
2023/02/08 09:51:15;;;;;;;31.17;23.02;;;;;;;0.51;68.66;103784.59;5010953;28;20668;-68
2023/02/08 09:53:55;;;;;;;42.80;24.48;;;;;;;0.64;69.05;103788.44;4995024;28;20198;-69
2023/02/08 09:56:41;;;;;;;42.67;23.42;;;;;;;1.00;67.53;103774.41;4988247;28;20221;-69
2023/02/08 09:59:25;;;;;;;37.42;22.80;;;;;;;0.86;67.55;103778.59;4998994;28;20254;-68
2023/02/08 10:02:04;;;;;;;43.00;22.42;;;;;;;0.87;66.07;103774.97;5005336;28;20646;-70
2023/02/08 10:04:46;;;;;;;38.45;22.85;;;;;;;0.71;65.33;103757.94;4993736;28;20221;-68
2023/02/08 10:07:16;;;;;;;38.90;22.15;;;;;;;0.67;66.35;103750.16;4998942;28;20718;-68
2023/02/08 10:09:48;;;;;;;39.78;26.30;;;;;;;0.98;66.57;103750.47;5021021;28;20253;-69
2023/02/08 10:12:29;;;;;;;37.25;24.13;;;;;;;1.02;65.62;103756.53;5011452;28;20206;-68
2023/02/08 10:15:14;;;;;;;39.88;26.88;;;;;;;0.98;64.78;103747.81;5014167;28;20229;-68
2023/02/08 10:18:07;;;;;;;43.58;23.15;;;;;;;1.00;64.69;103747.75;5019149;28;20231;-68
2023/02/08 10:20:50;;;;;;;34.05;21.65;;;;;;;0.97;64.53;103730.06;5004202;28;20237;-69
2023/02/08 10:23:34;;;;;;;48.15;23.48;;;;;;;0.98;65.10;103737.13;5009127;28;20205;-70
2023/02/08 10:26:15;;;;;;;44.88;27.00;;;;;;;1.16;64.78;103719.44;5001889;28;20210;-69
2023/02/08 10:29:06;;;;;;;41.72;25.02;;;;;;;1.34;64.35;103726.53;5008360;28;20206;-69
2023/02/08 10:31:58;;;;;;;38.17;22.27;;;;;;;1.33;63.45;103719.47;5007364;28;20198;-68
2023/02/08 10:34:41;;;;;;;38.05;23.77;;;;;;;1.23;63.44;103716.38;4999115;28;20190;-69
2023/02/08 10:37:16;;;;;;;41.47;25.33;;;;;;;1.45;63.56;103715.38;4978174;28;20225;-70
2023/02/08 10:39:48;;;;;;;46.97;26.38;;;;;;;1.53;63.08;103706.03;4982258;28;20193;-68
2023/02/08 10:42:22;;;;;;;42.38;27.08;;;;;;;1.47;62.89;103700.13;4978031;28;20206;-68
2023/02/08 10:45:06;;;;;;;46.47;27.95;;;;;;;1.56;62.92;103707.66;5003853;28;20201;-68
2023/02/08 10:47:56;;;;;;;38.42;23.40;;;;;;;1.81;62.34;103694.84;4979931;28;20217;-69
2023/02/08 10:50:35;;;;;;;43.20;25.55;;;;;;;1.75;61.88;103705.81;4984043;28;20283;-69
2023/02/08 10:53:05;;;;;;;40.17;25.75;;;;;;;1.76;62.11;103710.22;5004420;28;20272;-69
2023/02/08 10:55:40;;;;;;;41.42;24.00;;;;;;;1.89;61.69;103697.97;4995602;28;20214;-69
2023/02/08 10:58:17;;;;;;;41.95;25.55;;;;;;;1.96;61.43;103683.38;5004217;28;20667;-68
2023/02/08 11:00:52;;;;;;;49.40;25.95;;;;;;;1.92;61.32;103692.50;4992989;28;20198;-68
2023/02/08 11:03:26;;;;;;;38.63;26.67;;;;;;;1.85;61.28;103679.50;5008321;28;20204;-68
2023/02/08 11:05:58;;;;;;;44.22;25.48;;;;;;;2.02;61.42;103679.53;4979832;28;20213;-69
2023/02/08 11:08:34;;;;;;;39.28;25.55;;;;;;;2.03;60.67;103671.41;5009429;28;20289;-68
2023/02/08 11:11:07;;;;;;;42.63;25.42;;;;;;;2.14;61.30;103678.88;5001166;28;20195;-68
2023/02/08 11:13:41;;;;;;;37.38;24.17;;;;;;;2.05;60.20;103666.00;5011878;28;20253;-68
2023/02/08 11:16:13;;;;;;;32.25;22.00;;;;;;;2.07;59.76;103674.81;5011738;28;20237;-66
2023/02/08 11:18:50;;;;;;;38.13;25.45;;;;;;;1.96;60.17;103680.72;5015996;28;20218;-70
2023/02/08 11:21:28;;;;;;;35.03;21.63;;;;;;;2.09;59.43;103679.13;5007701;28;20223;-70
2023/02/08 11:24:01;;;;;;;44.90;24.67;;;;;;;2.11;59.16;103682.59;5020590;28;20215;-68
2023/02/08 11:26:37;;;;;;;38.78;24.95;;;;;;;2.04;59.55;103673.16;5022985;28;20232;-67
2023/02/08 11:29:16;;;;;;;42.40;24.88;;;;;;;2.16;60.32;103674.34;4959638;28;20229;-69
2023/02/08 11:31:59;;;;;;;38.05;24.65;;;;;;;2.22;59.53;103675.81;5011637;28;20205;-69
2023/02/08 11:34:31;;;;;;;39.22;25.13;;;;;;;2.29;60.16;103674.53;5012529;28;20252;-66
2023/02/08 11:37:13;;;;;;;42.95;27.38;;;;;;;2.38;59.37;103679.41;4985294;28;20287;-68
2023/02/08 11:39:50;;;;;;;38.47;22.00;;;;;;;2.23;59.48;103664.19;5015847;28;20199;-68
2023/02/08 11:42:24;;;;;;;30.40;21.02;;;;;;;2.43;59.62;103661.31;4980463;28;20190;-70
2023/02/08 11:44:58;;;;;;;46.47;29.35;;;;;;;2.58;59.02;103671.19;4991988;28;20544;-69
2023/02/08 11:47:32;;;;;;;31.52;22.25;;;;;;;2.59;58.12;103667.56;5014478;28;20574;-70
2023/02/08 11:50:05;;;;;;;37.53;25.23;;;;;;;2.67;58.66;103664.47;5010256;28;20190;-70
2023/02/08 11:52:38;;;;;;;44.63;23.55;;;;;;;2.83;58.34;103660.00;4986688;28;20294;-68
2023/02/08 11:55:25;;;;;;;36.97;21.58;;;;;;;2.85;57.84;103663.47;5015450;28;20209;-69
2023/02/08 11:57:58;;;;;;;42.35;23.02;;;;;;;2.69;56.86;103660.78;5015034;28;20199;-69
2023/02/08 12:00:34;;;;;;;39.47;22.77;;;;;;;2.50;57.15;103673.41;5021716;28;20649;-68
2023/02/08 12:03:13;;;;;;;39.72;21.80;;;;;;;2.40;57.36;103664.16;5023408;28;20622;-67
2023/02/08 12:05:54;;;;;;;40.05;21.58;;;;;;;2.40;57.29;103669.50;4985213;28;20190;-70
2023/02/08 12:08:33;;;;;;;34.70;23.30;;;;;;;2.43;57.64;103677.34;5015033;28;20392;-68
2023/02/08 12:11:16;;;;;;;36.45;22.33;;;;;;;2.51;57.79;103661.78;5002020;28;20182;-70
2023/02/08 12:14:20;;;;;;;34.65;23.23;;;;;;;2.46;57.74;103674.53;5008674;28;20202;-68
2023/02/08 12:17:07;;;;;;;42.00;25.33;;;;;;;2.45;57.42;103672.78;4990564;28;20218;-69
2023/02/08 12:20:10;;;;;;;34.22;22.83;;;;;;;2.40;58.09;103667.69;5013503;28;20210;-69
2023/02/08 12:22:50;;;;;;;37.92;24.17;;;;;;;2.27;57.99;103666.63;5009959;28;20204;-69
2023/02/08 12:25:29;;;;;;;42.42;24.63;;;;;;;2.38;58.13;103671.38;5015613;28;20198;-69
2023/02/08 12:28:07;;;;;;;41.90;22.75;;;;;;;2.46;57.76;103671.84;4980046;28;20240;-69
2023/02/08 12:30:45;;;;;;;39.95;23.50;;;;;;;2.56;57.44;103673.09;4995101;28;20256;-68
2023/02/08 12:33:47;;;;;;;36.72;21.15;;;;;;;2.68;57.17;103677.75;4982314;28;20199;-69
2023/02/08 12:36:35;;;;;;;41.35;24.60;;;;;;;2.74;56.99;103671.22;5015526;28;20246;-69
2023/02/08 12:42:34;;;;;;;40.47;26.00;;;;;;;2.91;57.08;103679.16;4998470;28;20273;-68